Singapore Changi International Airport
WSSS : now visible

Airfield :











YOU CAN JOIN US ON...

 
LOGIN :

Register | Disclaimer

   EN    FR    IT 

 









Legend :    VFR   Marginal VFR   IFR   Intensive IFR   Very Intensive IFR
Visi :
Ceiling :
>= 8 km
>= 3000ft
5 to 8 km
1000 to 3000 ft
1500m to 5 km
500 to 1000 ft
800 to 1500m
200 to 500 ft
< 800m
< 200 ft
Symbols :   Thunderstorms  Fog  Heavy snow  Heavy precipitations  Wind > 20 kt






- Airport Elevation : 22 ft
- IATA code : SIN


WSSS - Singapore Changi International

CURRENT METAR :
  • 250300Z 19005KT 120V220 9999 FEW020 BKN300 30/25 Q1010 NOSIG

EXPIRED METARs :
  • 250230Z VRB04KT 9999 FEW018 BKN300 30/25 Q1011 NOSIG
  • 250200Z 16006KT 100V200 9999 FEW018 FEW020TCU BKN300 28/24 Q1011 NOSIG
  • 250130Z 20004KT 170V240 9999 FEW016 FEW018TCU BKN300 28/24 Q1011 NOSIG
  • 250100Z 20006KT 180V240 9999 FEW016TCU FEW018CB SCT060 26/23 Q1011 NOSIG
  • 250030Z 25006KT 200V310 7000 VCSH FEW012 SCT016TCU FEW018CB 27/24 Q1011 NOSIG
  • 250000Z 29004KT 260V340 4500 BR FEW017CB FEW018CB SCT180 BKN300 27/26 Q1010 TEMPO FM0010 TL0040 2500 SHRA BECMG FM0050 TL0100 6000 NSW

TAF AMD TAF WSSS
Valid from the 25 at 01:00 until the 26 at 06:00 UTC


250130Z 2501/2606 20007KT 9999 FEW015CB SCT020
WSJC FIR / Asia



MET'MAP, your aeronautical weather chart ! - Copyright ORBIFLY December 2007 - Disclaimer

ORBIFLY MET'MAP TEAM :

Programming & Development : Alexandra Zaïnal
Concept & original design : Baudouin d'Aumeries
Assistance for programming : Marc-Olivier Méhu
Technical & hardware support : Manuel Goepfert

Contact : metmap@orbifly.com




SOURCES & CREDITS :

   NOAA       Earth
Advisory